sensor_id;sensor_type;location;lat;lon;timestamp;P1;P4;P2;P0;N10;N4;N25;N1;N05;TS
70681;SPS30;58261;48.228;11.686;2022-08-19T00:02:36;7.5;;7.0;;;;;;;
70681;SPS30;58261;48.228;11.686;2022-08-19T00:05:36;7.5;;7.0;;;;;;;
70681;SPS30;58261;48.228;11.686;2022-08-19T00:08:36;6.2;;6.2;;;;;;;
70681;SPS30;58261;48.228;11.686;2022-08-19T00:11:36;6.2;;6.2;;;;;;;
70681;SPS30;58261;48.228;11.686;2022-08-19T00:14:36;6.2;;6.2;;;;;;;
70681;SPS30;58261;48.228;11.686;2022-08-19T00:17:36;6.2;;6.2;;;;;;;
70681;SPS30;58261;48.228;11.686;2022-08-19T00:20:36;7.1;;6.6;;;;;;;
70681;SPS30;58261;48.228;11.686;2022-08-19T00:23:36;7.1;;6.6;;;;;;;
70681;SPS30;58261;48.228;11.686;2022-08-19T00:26:36;7.1;;6.6;;;;;;;
70681;SPS30;58261;48.228;11.686;2022-08-19T00:29:36;7.1;;6.6;;;;;;;
70681;SPS30;58261;48.228;11.686;2022-08-19T00:32:36;7.2;;6.9;;;;;;;
70681;SPS30;58261;48.228;11.686;2022-08-19T00:35:36;7.2;;6.9;;;;;;;
70681;SPS30;58261;48.228;11.686;2022-08-19T00:38:36;7.2;;6.9;;;;;;;
70681;SPS30;58261;48.228;11.686;2022-08-19T00:41:36;6.3;;6.1;;;;;;;
70681;SPS30;58261;48.228;11.686;2022-08-19T00:44:36;6.3;;6.1;;;;;;;
70681;SPS30;58261;48.228;11.686;2022-08-19T00:47:36;6.3;;6.1;;;;;;;
70681;SPS30;58261;48.228;11.686;2022-08-19T00:50:36;6.3;;6.1;;;;;;;
70681;SPS30;58261;48.228;11.686;2022-08-19T00:53:36;8.9;;8.4;;;;;;;
70681;SPS30;58261;48.228;11.686;2022-08-19T00:56:36;8.9;;8.4;;;;;;;
70681;SPS30;58261;48.228;11.686;2022-08-19T00:59:36;8.9;;8.4;;;;;;;
70681;SPS30;58261;48.228;11.686;2022-08-19T01:02:36;8.9;;8.4;;;;;;;
70681;SPS30;58261;48.228;11.686;2022-08-19T01:05:36;9.3;;9.3;;;;;;;
70681;SPS30;58261;48.228;11.686;2022-08-19T01:08:36;9.3;;9.3;;;;;;;
70681;SPS30;58261;48.228;11.686;2022-08-19T01:11:36;9.3;;9.3;;;;;;;
70681;SPS30;58261;48.228;11.686;2022-08-19T01:14:36;11.2;;10.7;;;;;;;
70681;SPS30;58261;48.228;11.686;2022-08-19T01:17:36;11.2;;10.7;;;;;;;
70681;SPS30;58261;48.228;11.686;2022-08-19T01:20:36;11.2;;10.7;;;;;;;
70681;SPS30;58261;48.228;11.686;2022-08-19T01:23:36;11.2;;10.7;;;;;;;
70681;SPS30;58261;48.228;11.686;2022-08-19T01:26:38;11.6;;11.5;;;;;;;
70681;SPS30;58261;48.228;11.686;2022-08-19T01:29:36;11.6;;11.5;;;;;;;
70681;SPS30;58261;48.228;11.686;2022-08-19T01:32:36;11.6;;11.5;;;;;;;
70681;SPS30;58261;48.228;11.686;2022-08-19T01:35:36;12.2;;11.7;;;;;;;
70681;SPS30;58261;48.228;11.686;2022-08-19T01:38:37;12.2;;11.7;;;;;;;
70681;SPS30;58261;48.228;11.686;2022-08-19T01:41:36;12.2;;11.7;;;;;;;
70681;SPS30;58261;48.228;11.686;2022-08-19T01:44:36;12.2;;11.7;;;;;;;
70681;SPS30;58261;48.228;11.686;2022-08-19T01:47:36;12.1;;11.7;;;;;;;
70681;SPS30;58261;48.228;11.686;2022-08-19T01:50:36;12.1;;11.7;;;;;;;
70681;SPS30;58261;48.228;11.686;2022-08-19T01:53:36;12.1;;11.7;;;;;;;
70681;SPS30;58261;48.228;11.686;2022-08-19T01:56:36;12.1;;11.7;;;;;;;
70681;SPS30;58261;48.228;11.686;2022-08-19T01:59:36;13.2;;12.5;;;;;;;
70681;SPS30;58261;48.228;11.686;2022-08-19T02:02:36;13.2;;12.5;;;;;;;
70681;SPS30;58261;48.228;11.686;2022-08-19T02:05:36;13.2;;12.5;;;;;;;
70681;SPS30;58261;48.228;11.686;2022-08-19T02:08:36;13.4;;13.1;;;;;;;
70681;SPS30;58261;48.228;11.686;2022-08-19T02:11:36;13.4;;13.1;;;;;;;
70681;SPS30;58261;48.228;11.686;2022-08-19T02:14:36;13.4;;13.1;;;;;;;
70681;SPS30;58261;48.228;11.686;2022-08-19T02:17:36;13.4;;13.1;;;;;;;
70681;SPS30;58261;48.228;11.686;2022-08-19T02:20:36;13.1;;12.6;;;;;;;
70681;SPS30;58261;48.228;11.686;2022-08-19T02:23:36;13.1;;12.6;;;;;;;
70681;SPS30;58261;48.228;11.686;2022-08-19T02:26:36;13.1;;12.6;;;;;;;
70681;SPS30;58261;48.228;11.686;2022-08-19T02:29:36;13.1;;12.6;;;;;;;
70681;SPS30;58261;48.228;11.686;2022-08-19T02:32:36;14.6;;13.7;;;;;;;
70681;SPS30;58261;48.228;11.686;2022-08-19T02:35:36;14.6;;13.7;;;;;;;
70681;SPS30;58261;48.228;11.686;2022-08-19T02:38:36;14.6;;13.7;;;;;;;
70681;SPS30;58261;48.228;11.686;2022-08-19T02:41:36;12.4;;11.9;;;;;;;
70681;SPS30;58261;48.228;11.686;2022-08-19T02:44:36;12.4;;11.9;;;;;;;
70681;SPS30;58261;48.228;11.686;2022-08-19T02:47:36;12.4;;11.9;;;;;;;
70681;SPS30;58261;48.228;11.686;2022-08-19T02:50:37;12.4;;11.9;;;;;;;
70681;SPS30;58261;48.228;11.686;2022-08-19T02:53:36;11.6;;11.4;;;;;;;
70681;SPS30;58261;48.228;11.686;2022-08-19T02:56:36;11.6;;11.4;;;;;;;
70681;SPS30;58261;48.228;11.686;2022-08-19T02:59:36;11.6;;11.4;;;;;;;
70681;SPS30;58261;48.228;11.686;2022-08-19T03:02:36;11.6;;11.4;;;;;;;
70681;SPS30;58261;48.228;11.686;2022-08-19T03:05:36;11.6;;11.6;;;;;;;
70681;SPS30;58261;48.228;11.686;2022-08-19T03:08:36;11.6;;11.6;;;;;;;
70681;SPS30;58261;48.228;11.686;2022-08-19T03:11:36;11.6;;11.6;;;;;;;
70681;SPS30;58261;48.228;11.686;2022-08-19T03:14:36;12.8;;12.2;;;;;;;
70681;SPS30;58261;48.228;11.686;2022-08-19T03:17:36;12.8;;12.2;;;;;;;
70681;SPS30;58261;48.228;11.686;2022-08-19T03:20:39;12.8;;12.2;;;;;;;
70681;SPS30;58261;48.228;11.686;2022-08-19T03:23:36;12.8;;12.2;;;;;;;
70681;SPS30;58261;48.228;11.686;2022-08-19T03:26:38;11.2;;11.2;;;;;;;
70681;SPS30;58261;48.228;11.686;2022-08-19T03:29:36;11.2;;11.2;;;;;;;
70681;SPS30;58261;48.228;11.686;2022-08-19T03:32:36;11.2;;11.2;;;;;;;
70681;SPS30;58261;48.228;11.686;2022-08-19T03:35:36;10.6;;10.4;;;;;;;
70681;SPS30;58261;48.228;11.686;2022-08-19T03:38:37;10.6;;10.4;;;;;;;
70681;SPS30;58261;48.228;11.686;2022-08-19T03:41:37;10.6;;10.4;;;;;;;
70681;SPS30;58261;48.228;11.686;2022-08-19T03:44:36;10.6;;10.4;;;;;;;
70681;SPS30;58261;48.228;11.686;2022-08-19T03:47:36;12.3;;11.7;;;;;;;
70681;SPS30;58261;48.228;11.686;2022-08-19T03:50:38;12.3;;11.7;;;;;;;
70681;SPS30;58261;48.228;11.686;2022-08-19T03:53:36;12.3;;11.7;;;;;;;
70681;SPS30;58261;48.228;11.686;2022-08-19T03:56:36;12.3;;11.7;;;;;;;
70681;SPS30;58261;48.228;11.686;2022-08-19T03:59:36;11.6;;11.3;;;;;;;
70681;SPS30;58261;48.228;11.686;2022-08-19T04:02:36;11.6;;11.3;;;;;;;
70681;SPS30;58261;48.228;11.686;2022-08-19T04:05:36;11.6;;11.3;;;;;;;
70681;SPS30;58261;48.228;11.686;2022-08-19T04:08:36;11.2;;11.0;;;;;;;
70681;SPS30;58261;48.228;11.686;2022-08-19T04:11:37;11.2;;11.0;;;;;;;
70681;SPS30;58261;48.228;11.686;2022-08-19T04:14:36;11.2;;11.0;;;;;;;
70681;SPS30;58261;48.228;11.686;2022-08-19T04:17:36;11.2;;11.0;;;;;;;
70681;SPS30;58261;48.228;11.686;2022-08-19T04:20:40;13.5;;12.8;;;;;;;
70681;SPS30;58261;48.228;11.686;2022-08-19T04:23:36;13.5;;12.8;;;;;;;
70681;SPS30;58261;48.228;11.686;2022-08-19T04:26:36;13.5;;12.8;;;;;;;
70681;SPS30;58261;48.228;11.686;2022-08-19T04:29:36;13.5;;12.8;;;;;;;
70681;SPS30;58261;48.228;11.686;2022-08-19T04:32:36;14.5;;13.7;;;;;;;
70681;SPS30;58261;48.228;11.686;2022-08-19T04:35:37;14.5;;13.7;;;;;;;
70681;SPS30;58261;48.228;11.686;2022-08-19T04:38:36;14.5;;13.7;;;;;;;
70681;SPS30;58261;48.228;11.686;2022-08-19T04:41:36;14.4;;13.3;;;;;;;
70681;SPS30;58261;48.228;11.686;2022-08-19T04:44:36;14.4;;13.3;;;;;;;
70681;SPS30;58261;48.228;11.686;2022-08-19T04:47:36;14.4;;13.3;;;;;;;
70681;SPS30;58261;48.228;11.686;2022-08-19T04:50:36;14.4;;13.3;;;;;;;
70681;SPS30;58261;48.228;11.686;2022-08-19T04:53:36;13.4;;12.7;;;;;;;
70681;SPS30;58261;48.228;11.686;2022-08-19T04:56:36;13.4;;12.7;;;;;;;
70681;SPS30;58261;48.228;11.686;2022-08-19T04:59:36;13.4;;12.7;;;;;;;
70681;SPS30;58261;48.228;11.686;2022-08-19T05:02:36;14.6;;12.7;;;;;;;
70681;SPS30;58261;48.228;11.686;2022-08-19T05:05:38;14.6;;12.7;;;;;;;
70681;SPS30;58261;48.228;11.686;2022-08-19T05:08:36;14.6;;12.7;;;;;;;
70681;SPS30;58261;48.228;11.686;2022-08-19T05:11:36;14.6;;12.7;;;;;;;
70681;SPS30;58261;48.228;11.686;2022-08-19T05:14:36;40.9;;25.3;;;;;;;
70681;SPS30;58261;48.228;11.686;2022-08-19T05:17:36;40.9;;25.3;;;;;;;
70681;SPS30;58261;48.228;11.686;2022-08-19T05:20:37;40.9;;25.3;;;;;;;
70681;SPS30;58261;48.228;11.686;2022-08-19T05:23:36;40.9;;25.3;;;;;;;
70681;SPS30;58261;48.228;11.686;2022-08-19T05:26:36;11.9;;11.8;;;;;;;
70681;SPS30;58261;48.228;11.686;2022-08-19T05:29:36;11.9;;11.8;;;;;;;
70681;SPS30;58261;48.228;11.686;2022-08-19T05:32:36;11.9;;11.8;;;;;;;
70681;SPS30;58261;48.228;11.686;2022-08-19T05:35:36;11.5;;11.5;;;;;;;
70681;SPS30;58261;48.228;11.686;2022-08-19T05:38:36;11.5;;11.5;;;;;;;
70681;SPS30;58261;48.228;11.686;2022-08-19T05:41:37;11.5;;11.5;;;;;;;
70681;SPS30;58261;48.228;11.686;2022-08-19T05:44:37;11.5;;11.5;;;;;;;
70681;SPS30;58261;48.228;11.686;2022-08-19T05:47:36;12.6;;12.5;;;;;;;
70681;SPS30;58261;48.228;11.686;2022-08-19T05:50:36;12.6;;12.5;;;;;;;
70681;SPS30;58261;48.228;11.686;2022-08-19T05:53:36;12.6;;12.5;;;;;;;
70681;SPS30;58261;48.228;11.686;2022-08-19T05:56:36;12.6;;12.5;;;;;;;
70681;SPS30;58261;48.228;11.686;2022-08-19T05:59:36;15.7;;14.7;;;;;;;
70681;SPS30;58261;48.228;11.686;2022-08-19T06:02:36;15.7;;14.7;;;;;;;
70681;SPS30;58261;48.228;11.686;2022-08-19T06:05:36;15.7;;14.7;;;;;;;
70681;SPS30;58261;48.228;11.686;2022-08-19T06:08:36;13.1;;12.8;;;;;;;
70681;SPS30;58261;48.228;11.686;2022-08-19T06:11:37;13.1;;12.8;;;;;;;
70681;SPS30;58261;48.228;11.686;2022-08-19T06:14:36;13.1;;12.8;;;;;;;
70681;SPS30;58261;48.228;11.686;2022-08-19T06:17:36;13.1;;12.8;;;;;;;
70681;SPS30;58261;48.228;11.686;2022-08-19T06:20:36;16.2;;14.9;;;;;;;
70681;SPS30;58261;48.228;11.686;2022-08-19T06:23:36;16.2;;14.9;;;;;;;
70681;SPS30;58261;48.228;11.686;2022-08-19T06:26:37;16.2;;14.9;;;;;;;
70681;SPS30;58261;48.228;11.686;2022-08-19T06:29:36;14.6;;14.3;;;;;;;
70681;SPS30;58261;48.228;11.686;2022-08-19T06:32:36;14.6;;14.3;;;;;;;
70681;SPS30;58261;48.228;11.686;2022-08-19T06:35:38;14.6;;14.3;;;;;;;
70681;SPS30;58261;48.228;11.686;2022-08-19T06:38:36;14.6;;14.3;;;;;;;
70681;SPS30;58261;48.228;11.686;2022-08-19T06:41:36;18.6;;18.0;;;;;;;
70681;SPS30;58261;48.228;11.686;2022-08-19T06:44:36;18.6;;18.0;;;;;;;
70681;SPS30;58261;48.228;11.686;2022-08-19T06:47:36;18.6;;18.0;;;;;;;
70681;SPS30;58261;48.228;11.686;2022-08-19T06:50:36;18.6;;18.0;;;;;;;
70681;SPS30;58261;48.228;11.686;2022-08-19T06:53:36;20.3;;19.8;;;;;;;
70681;SPS30;58261;48.228;11.686;2022-08-19T06:56:36;20.3;;19.8;;;;;;;
70681;SPS30;58261;48.228;11.686;2022-08-19T06:59:36;20.3;;19.8;;;;;;;
70681;SPS30;58261;48.228;11.686;2022-08-19T07:02:36;22.9;;21.9;;;;;;;
70681;SPS30;58261;48.228;11.686;2022-08-19T07:05:38;22.9;;21.9;;;;;;;
70681;SPS30;58261;48.228;11.686;2022-08-19T07:08:36;22.9;;21.9;;;;;;;
70681;SPS30;58261;48.228;11.686;2022-08-19T07:11:36;22.9;;21.9;;;;;;;
70681;SPS30;58261;48.228;11.686;2022-08-19T07:14:36;19.9;;19.5;;;;;;;
70681;SPS30;58261;48.228;11.686;2022-08-19T07:17:36;19.9;;19.5;;;;;;;
70681;SPS30;58261;48.228;11.686;2022-08-19T07:20:36;19.9;;19.5;;;;;;;
70681;SPS30;58261;48.228;11.686;2022-08-19T07:23:36;19.9;;19.5;;;;;;;
70681;SPS30;58261;48.228;11.686;2022-08-19T07:26:37;19.4;;19.0;;;;;;;
70681;SPS30;58261;48.228;11.686;2022-08-19T07:29:36;19.4;;19.0;;;;;;;
70681;SPS30;58261;48.228;11.686;2022-08-19T07:32:36;19.4;;19.0;;;;;;;
70681;SPS30;58261;48.228;11.686;2022-08-19T07:35:36;19.4;;19.3;;;;;;;
70681;SPS30;58261;48.228;11.686;2022-08-19T07:38:36;19.4;;19.3;;;;;;;
70681;SPS30;58261;48.228;11.686;2022-08-19T07:41:36;19.4;;19.3;;;;;;;
70681;SPS30;58261;48.228;11.686;2022-08-19T07:44:36;19.4;;19.3;;;;;;;
70681;SPS30;58261;48.228;11.686;2022-08-19T07:47:36;28.0;;25.5;;;;;;;
70681;SPS30;58261;48.228;11.686;2022-08-19T07:50:36;28.0;;25.5;;;;;;;
70681;SPS30;58261;48.228;11.686;2022-08-19T07:53:36;28.0;;25.5;;;;;;;
70681;SPS30;58261;48.228;11.686;2022-08-19T07:56:36;29.0;;27.1;;;;;;;
70681;SPS30;58261;48.228;11.686;2022-08-19T07:59:36;29.0;;27.1;;;;;;;
70681;SPS30;58261;48.228;11.686;2022-08-19T08:02:36;29.0;;27.1;;;;;;;
70681;SPS30;58261;48.228;11.686;2022-08-19T08:05:36;29.0;;27.1;;;;;;;
70681;SPS30;58261;48.228;11.686;2022-08-19T08:08:36;27.0;;25.6;;;;;;;
70681;SPS30;58261;48.228;11.686;2022-08-19T08:11:36;27.0;;25.6;;;;;;;
70681;SPS30;58261;48.228;11.686;2022-08-19T08:14:37;27.0;;25.6;;;;;;;
70681;SPS30;58261;48.228;11.686;2022-08-19T08:17:36;27.0;;25.6;;;;;;;
70681;SPS30;58261;48.228;11.686;2022-08-19T08:20:36;28.1;;26.5;;;;;;;
70681;SPS30;58261;48.228;11.686;2022-08-19T08:23:36;28.1;;26.5;;;;;;;
70681;SPS30;58261;48.228;11.686;2022-08-19T08:26:36;28.1;;26.5;;;;;;;
70681;SPS30;58261;48.228;11.686;2022-08-19T08:29:36;28.1;;27.4;;;;;;;
70681;SPS30;58261;48.228;11.686;2022-08-19T08:32:36;28.1;;27.4;;;;;;;
70681;SPS30;58261;48.228;11.686;2022-08-19T08:35:36;28.1;;27.4;;;;;;;
70681;SPS30;58261;48.228;11.686;2022-08-19T08:38:36;28.1;;27.4;;;;;;;
70681;SPS30;58261;48.228;11.686;2022-08-19T08:41:38;28.1;;27.4;;;;;;;
70681;SPS30;58261;48.228;11.686;2022-08-19T08:44:38;28.1;;27.4;;;;;;;
70681;SPS30;58261;48.228;11.686;2022-08-19T08:47:36;28.1;;27.4;;;;;;;
70681;SPS30;58261;48.228;11.686;2022-08-19T08:50:38;28.1;;27.4;;;;;;;
70681;SPS30;58261;48.228;11.686;2022-08-19T08:53:36;28.1;;27.4;;;;;;;
70681;SPS30;58261;48.228;11.686;2022-08-19T08:56:37;28.1;;27.4;;;;;;;
70681;SPS30;58261;48.228;11.686;2022-08-19T08:59:37;34.5;;32.3;;;;;;;
70681;SPS30;58261;48.228;11.686;2022-08-19T09:02:36;34.5;;32.3;;;;;;;
70681;SPS30;58261;48.228;11.686;2022-08-19T09:05:38;34.5;;32.3;;;;;;;
70681;SPS30;58261;48.228;11.686;2022-08-19T09:08:39;34.5;;32.3;;;;;;;
70681;SPS30;58261;48.228;11.686;2022-08-19T09:11:39;32.7;;31.0;;;;;;;
70681;SPS30;58261;48.228;11.686;2022-08-19T09:14:37;32.7;;31.0;;;;;;;
70681;SPS30;58261;48.228;11.686;2022-08-19T09:17:36;32.7;;31.0;;;;;;;
70681;SPS30;58261;48.228;11.686;2022-08-19T09:20:36;37.9;;34.0;;;;;;;
70681;SPS30;58261;48.228;11.686;2022-08-19T09:23:36;37.9;;34.0;;;;;;;
70681;SPS30;58261;48.228;11.686;2022-08-19T09:26:36;37.9;;34.0;;;;;;;
70681;SPS30;58261;48.228;11.686;2022-08-19T09:29:36;37.9;;34.0;;;;;;;
70681;SPS30;58261;48.228;11.686;2022-08-19T09:32:36;36.5;;34.2;;;;;;;
70681;SPS30;58261;48.228;11.686;2022-08-19T09:35:36;36.5;;34.2;;;;;;;
70681;SPS30;58261;48.228;11.686;2022-08-19T09:38:36;36.5;;34.2;;;;;;;
70681;SPS30;58261;48.228;11.686;2022-08-19T09:41:36;38.1;;34.9;;;;;;;
70681;SPS30;58261;48.228;11.686;2022-08-19T09:44:36;38.1;;34.9;;;;;;;
70681;SPS30;58261;48.228;11.686;2022-08-19T09:47:36;38.1;;34.9;;;;;;;
70681;SPS30;58261;48.228;11.686;2022-08-19T09:50:36;38.1;;34.9;;;;;;;
70681;SPS30;58261;48.228;11.686;2022-08-19T09:53:37;33.1;;31.8;;;;;;;
70681;SPS30;58261;48.228;11.686;2022-08-19T09:56:36;33.1;;31.8;;;;;;;
70681;SPS30;58261;48.228;11.686;2022-08-19T09:59:36;33.1;;31.8;;;;;;;
70681;SPS30;58261;48.228;11.686;2022-08-19T10:02:36;33.1;;31.8;;;;;;;
70681;SPS30;58261;48.228;11.686;2022-08-19T10:05:36;37.5;;34.7;;;;;;;
70681;SPS30;58261;48.228;11.686;2022-08-19T10:08:36;37.5;;34.7;;;;;;;
70681;SPS30;58261;48.228;11.686;2022-08-19T10:11:38;37.5;;34.7;;;;;;;
70681;SPS30;58261;48.228;11.686;2022-08-19T10:14:37;40.3;;36.0;;;;;;;
70681;SPS30;58261;48.228;11.686;2022-08-19T10:17:36;40.3;;36.0;;;;;;;
70681;SPS30;58261;48.228;11.686;2022-08-19T10:20:36;40.3;;36.0;;;;;;;
70681;SPS30;58261;48.228;11.686;2022-08-19T10:23:36;40.3;;36.0;;;;;;;
70681;SPS30;58261;48.228;11.686;2022-08-19T10:26:37;35.0;;33.3;;;;;;;
70681;SPS30;58261;48.228;11.686;2022-08-19T10:29:36;35.0;;33.3;;;;;;;
70681;SPS30;58261;48.228;11.686;2022-08-19T10:32:36;35.0;;33.3;;;;;;;
70681;SPS30;58261;48.228;11.686;2022-08-19T10:35:36;35.0;;33.3;;;;;;;
70681;SPS30;58261;48.228;11.686;2022-08-19T10:38:36;32.7;;30.9;;;;;;;
70681;SPS30;58261;48.228;11.686;2022-08-19T10:41:37;32.7;;30.9;;;;;;;
70681;SPS30;58261;48.228;11.686;2022-08-19T10:44:36;32.7;;30.9;;;;;;;
70681;SPS30;58261;48.228;11.686;2022-08-19T10:47:36;33.0;;30.9;;;;;;;
70681;SPS30;58261;48.228;11.686;2022-08-19T10:50:36;33.0;;30.9;;;;;;;
70681;SPS30;58261;48.228;11.686;2022-08-19T10:53:36;33.0;;30.9;;;;;;;
70681;SPS30;58261;48.228;11.686;2022-08-19T10:56:36;33.0;;30.9;;;;;;;
70681;SPS30;58261;48.228;11.686;2022-08-19T10:59:36;30.7;;28.7;;;;;;;
70681;SPS30;58261;48.228;11.686;2022-08-19T11:02:36;30.7;;28.7;;;;;;;
70681;SPS30;58261;48.228;11.686;2022-08-19T11:05:36;30.7;;28.7;;;;;;;
70681;SPS30;58261;48.228;11.686;2022-08-19T11:08:36;22.4;;21.7;;;;;;;
70681;SPS30;58261;48.228;11.686;2022-08-19T11:11:36;22.4;;21.7;;;;;;;
70681;SPS30;58261;48.228;11.686;2022-08-19T11:14:36;22.4;;21.7;;;;;;;
70681;SPS30;58261;48.228;11.686;2022-08-19T11:17:37;22.4;;21.7;;;;;;;
70681;SPS30;58261;48.228;11.686;2022-08-19T11:20:36;29.0;;25.8;;;;;;;
70681;SPS30;58261;48.228;11.686;2022-08-19T11:23:36;29.0;;25.8;;;;;;;
70681;SPS30;58261;48.228;11.686;2022-08-19T11:26:36;29.0;;25.8;;;;;;;
70681;SPS30;58261;48.228;11.686;2022-08-19T11:29:37;29.0;;25.8;;;;;;;
70681;SPS30;58261;48.228;11.686;2022-08-19T11:32:36;0.0;;0.0;;;;;;;
70681;SPS30;58261;48.228;11.686;2022-08-19T11:35:38;0.0;;0.0;;;;;;;
70681;SPS30;58261;48.228;11.686;2022-08-19T11:38:36;0.0;;0.0;;;;;;;
70681;SPS30;58261;48.228;11.686;2022-08-19T11:41:36;14.8;;14.3;;;;;;;
70681;SPS30;58261;48.228;11.686;2022-08-19T11:44:36;14.8;;14.3;;;;;;;
70681;SPS30;58261;48.228;11.686;2022-08-19T11:47:36;14.8;;14.3;;;;;;;
70681;SPS30;58261;48.228;11.686;2022-08-19T11:50:36;14.8;;14.3;;;;;;;
70681;SPS30;58261;48.228;11.686;2022-08-19T11:53:36;5.7;;4.8;;;;;;;
70681;SPS30;58261;48.228;11.686;2022-08-19T11:56:37;5.7;;4.8;;;;;;;
70681;SPS30;58261;48.228;11.686;2022-08-19T11:59:36;5.7;;4.8;;;;;;;
70681;SPS30;58261;48.228;11.686;2022-08-19T12:02:36;5.7;;4.8;;;;;;;
70681;SPS30;58261;48.228;11.686;2022-08-19T12:05:36;6.2;;5.7;;;;;;;
70681;SPS30;58261;48.228;11.686;2022-08-19T12:08:36;6.2;;5.7;;;;;;;
70681;SPS30;58261;48.228;11.686;2022-08-19T12:11:36;6.2;;5.7;;;;;;;
70681;SPS30;58261;48.228;11.686;2022-08-19T12:14:36;3.6;;3.6;;;;;;;
70681;SPS30;58261;48.228;11.686;2022-08-19T12:17:36;3.6;;3.6;;;;;;;
70681;SPS30;58261;48.228;11.686;2022-08-19T12:20:37;3.6;;3.6;;;;;;;
70681;SPS30;58261;48.228;11.686;2022-08-19T12:23:36;3.6;;3.6;;;;;;;
70681;SPS30;58261;48.228;11.686;2022-08-19T12:26:36;3.6;;3.6;;;;;;;
70681;SPS30;58261;48.228;11.686;2022-08-19T12:29:36;3.6;;3.6;;;;;;;
70681;SPS30;58261;48.228;11.686;2022-08-19T12:32:36;3.6;;3.6;;;;;;;
70681;SPS30;58261;48.228;11.686;2022-08-19T12:35:39;16.3;;14.9;;;;;;;
70681;SPS30;58261;48.228;11.686;2022-08-19T12:38:36;16.3;;14.9;;;;;;;
70681;SPS30;58261;48.228;11.686;2022-08-19T12:41:36;16.3;;14.9;;;;;;;
70681;SPS30;58261;48.228;11.686;2022-08-19T12:44:37;16.3;;14.9;;;;;;;
70681;SPS30;58261;48.228;11.686;2022-08-19T12:47:36;3.2;;3.2;;;;;;;
70681;SPS30;58261;48.228;11.686;2022-08-19T12:50:38;3.2;;3.2;;;;;;;
70681;SPS30;58261;48.228;11.686;2022-08-19T12:53:36;3.2;;3.2;;;;;;;
70681;SPS30;58261;48.228;11.686;2022-08-19T12:56:36;3.2;;3.2;;;;;;;
70681;SPS30;58261;48.228;11.686;2022-08-19T12:59:36;2.2;;2.2;;;;;;;
70681;SPS30;58261;48.228;11.686;2022-08-19T13:02:37;2.2;;2.2;;;;;;;
70681;SPS30;58261;48.228;11.686;2022-08-19T13:05:36;2.2;;2.2;;;;;;;
70681;SPS30;58261;48.228;11.686;2022-08-19T13:08:36;2.0;;2.0;;;;;;;
70681;SPS30;58261;48.228;11.686;2022-08-19T13:11:36;2.0;;2.0;;;;;;;
70681;SPS30;58261;48.228;11.686;2022-08-19T13:14:36;2.0;;2.0;;;;;;;
70681;SPS30;58261;48.228;11.686;2022-08-19T13:17:36;2.0;;2.0;;;;;;;
70681;SPS30;58261;48.228;11.686;2022-08-19T13:20:37;3.3;;3.0;;;;;;;
70681;SPS30;58261;48.228;11.686;2022-08-19T13:23:36;3.3;;3.0;;;;;;;
70681;SPS30;58261;48.228;11.686;2022-08-19T13:26:36;3.3;;3.0;;;;;;;
70681;SPS30;58261;48.228;11.686;2022-08-19T13:29:36;3.3;;3.0;;;;;;;
70681;SPS30;58261;48.228;11.686;2022-08-19T13:32:36;3.4;;3.0;;;;;;;
70681;SPS30;58261;48.228;11.686;2022-08-19T13:35:36;3.4;;3.0;;;;;;;
70681;SPS30;58261;48.228;11.686;2022-08-19T13:38:36;3.4;;3.0;;;;;;;
70681;SPS30;58261;48.228;11.686;2022-08-19T13:41:36;3.5;;3.2;;;;;;;
70681;SPS30;58261;48.228;11.686;2022-08-19T13:44:36;3.5;;3.2;;;;;;;
70681;SPS30;58261;48.228;11.686;2022-08-19T13:47:36;3.5;;3.2;;;;;;;
70681;SPS30;58261;48.228;11.686;2022-08-19T13:50:38;3.5;;3.2;;;;;;;
70681;SPS30;58261;48.228;11.686;2022-08-19T13:53:36;3.9;;3.9;;;;;;;
70681;SPS30;58261;48.228;11.686;2022-08-19T13:56:39;3.9;;3.9;;;;;;;
70681;SPS30;58261;48.228;11.686;2022-08-19T13:59:36;3.9;;3.9;;;;;;;
70681;SPS30;58261;48.228;11.686;2022-08-19T14:02:37;3.9;;3.9;;;;;;;
70681;SPS30;58261;48.228;11.686;2022-08-19T14:05:36;4.9;;4.4;;;;;;;
70681;SPS30;58261;48.228;11.686;2022-08-19T14:08:36;4.9;;4.4;;;;;;;
70681;SPS30;58261;48.228;11.686;2022-08-19T14:11:36;4.9;;4.4;;;;;;;
70681;SPS30;58261;48.228;11.686;2022-08-19T14:14:36;6.2;;5.7;;;;;;;
70681;SPS30;58261;48.228;11.686;2022-08-19T14:17:37;6.2;;5.7;;;;;;;
70681;SPS30;58261;48.228;11.686;2022-08-19T14:20:37;6.2;;5.7;;;;;;;
70681;SPS30;58261;48.228;11.686;2022-08-19T14:23:36;6.2;;5.7;;;;;;;
70681;SPS30;58261;48.228;11.686;2022-08-19T14:26:36;4.9;;4.7;;;;;;;
70681;SPS30;58261;48.228;11.686;2022-08-19T14:29:36;4.9;;4.7;;;;;;;
70681;SPS30;58261;48.228;11.686;2022-08-19T14:32:36;4.9;;4.7;;;;;;;
70681;SPS30;58261;48.228;11.686;2022-08-19T14:35:36;4.4;;4.3;;;;;;;
70681;SPS30;58261;48.228;11.686;2022-08-19T14:38:37;4.4;;4.3;;;;;;;
70681;SPS30;58261;48.228;11.686;2022-08-19T14:41:39;4.4;;4.3;;;;;;;
70681;SPS30;58261;48.228;11.686;2022-08-19T14:44:37;4.4;;4.3;;;;;;;
70681;SPS30;58261;48.228;11.686;2022-08-19T14:47:36;3.4;;3.4;;;;;;;
70681;SPS30;58261;48.228;11.686;2022-08-19T14:50:37;3.4;;3.4;;;;;;;
70681;SPS30;58261;48.228;11.686;2022-08-19T14:53:37;3.4;;3.4;;;;;;;
70681;SPS30;58261;48.228;11.686;2022-08-19T14:56:37;3.4;;3.4;;;;;;;
70681;SPS30;58261;48.228;11.686;2022-08-19T14:59:37;2.4;;2.4;;;;;;;
70681;SPS30;58261;48.228;11.686;2022-08-19T15:02:37;2.4;;2.4;;;;;;;
70681;SPS30;58261;48.228;11.686;2022-08-19T15:05:37;2.4;;2.4;;;;;;;
70681;SPS30;58261;48.228;11.686;2022-08-19T15:08:37;7.1;;6.3;;;;;;;
70681;SPS30;58261;48.228;11.686;2022-08-19T15:11:37;7.1;;6.3;;;;;;;
70681;SPS30;58261;48.228;11.686;2022-08-19T15:14:37;7.1;;6.3;;;;;;;
70681;SPS30;58261;48.228;11.686;2022-08-19T15:17:37;7.1;;6.3;;;;;;;
70681;SPS30;58261;48.228;11.686;2022-08-19T15:20:37;6.2;;5.7;;;;;;;
70681;SPS30;58261;48.228;11.686;2022-08-19T15:23:37;6.2;;5.7;;;;;;;
70681;SPS30;58261;48.228;11.686;2022-08-19T15:26:37;6.2;;5.7;;;;;;;
70681;SPS30;58261;48.228;11.686;2022-08-19T15:29:37;6.2;;5.7;;;;;;;
70681;SPS30;58261;48.228;11.686;2022-08-19T15:32:37;10.0;;9.4;;;;;;;
70681;SPS30;58261;48.228;11.686;2022-08-19T15:35:37;10.0;;9.4;;;;;;;
70681;SPS30;58261;48.228;11.686;2022-08-19T15:38:37;10.0;;9.4;;;;;;;
70681;SPS30;58261;48.228;11.686;2022-08-19T15:41:37;9.3;;9.1;;;;;;;
70681;SPS30;58261;48.228;11.686;2022-08-19T15:44:37;9.3;;9.1;;;;;;;
70681;SPS30;58261;48.228;11.686;2022-08-19T15:47:37;9.3;;9.1;;;;;;;
70681;SPS30;58261;48.228;11.686;2022-08-19T15:50:37;9.3;;9.1;;;;;;;
70681;SPS30;58261;48.228;11.686;2022-08-19T15:53:37;9.2;;9.2;;;;;;;
70681;SPS30;58261;48.228;11.686;2022-08-19T15:56:37;9.2;;9.2;;;;;;;
70681;SPS30;58261;48.228;11.686;2022-08-19T15:59:37;9.2;;9.2;;;;;;;
70681;SPS30;58261;48.228;11.686;2022-08-19T16:02:37;10.4;;10.4;;;;;;;
70681;SPS30;58261;48.228;11.686;2022-08-19T16:05:37;10.4;;10.4;;;;;;;
70681;SPS30;58261;48.228;11.686;2022-08-19T16:08:37;10.4;;10.4;;;;;;;
70681;SPS30;58261;48.228;11.686;2022-08-19T16:11:37;10.4;;10.4;;;;;;;
70681;SPS30;58261;48.228;11.686;2022-08-19T16:14:37;11.7;;11.0;;;;;;;
70681;SPS30;58261;48.228;11.686;2022-08-19T16:17:37;11.7;;11.0;;;;;;;
70681;SPS30;58261;48.228;11.686;2022-08-19T16:20:37;11.7;;11.0;;;;;;;
70681;SPS30;58261;48.228;11.686;2022-08-19T16:23:37;11.7;;11.0;;;;;;;
70681;SPS30;58261;48.228;11.686;2022-08-19T16:26:37;10.5;;10.3;;;;;;;
70681;SPS30;58261;48.228;11.686;2022-08-19T16:29:37;10.5;;10.3;;;;;;;
70681;SPS30;58261;48.228;11.686;2022-08-19T16:32:41;10.5;;10.3;;;;;;;
70681;SPS30;58261;48.228;11.686;2022-08-19T16:35:37;11.5;;10.9;;;;;;;
70681;SPS30;58261;48.228;11.686;2022-08-19T16:38:37;11.5;;10.9;;;;;;;
70681;SPS30;58261;48.228;11.686;2022-08-19T16:41:37;11.5;;10.9;;;;;;;
70681;SPS30;58261;48.228;11.686;2022-08-19T16:44:39;11.5;;10.9;;;;;;;
70681;SPS30;58261;48.228;11.686;2022-08-19T16:47:37;12.7;;12.0;;;;;;;
70681;SPS30;58261;48.228;11.686;2022-08-19T16:50:37;12.7;;12.0;;;;;;;
70681;SPS30;58261;48.228;11.686;2022-08-19T16:53:37;12.7;;12.0;;;;;;;
70681;SPS30;58261;48.228;11.686;2022-08-19T16:56:37;12.7;;12.0;;;;;;;
70681;SPS30;58261;48.228;11.686;2022-08-19T16:59:37;10.9;;10.9;;;;;;;
70681;SPS30;58261;48.228;11.686;2022-08-19T17:02:37;10.9;;10.9;;;;;;;
70681;SPS30;58261;48.228;11.686;2022-08-19T17:05:40;10.9;;10.9;;;;;;;
70681;SPS30;58261;48.228;11.686;2022-08-19T17:08:37;36.5;;34.6;;;;;;;
70681;SPS30;58261;48.228;11.686;2022-08-19T17:11:37;36.5;;34.6;;;;;;;